Time;durP1;ratioP1;P1;durP2;ratioP2;P2;SDS_P1;SDS_P2;PMS_P1;PMS_P2;Temp;Humidity;BMP_temperature;BMP_pressure;BME280_temperature;BME280_humidity;BME280_pressure;Samples;Min_cycle;Max_cycle;Signal;HPM_P1;HPM_P2
2023/10/16 00:01:09;;;;;;;1.90;0.90;;;6.20;99.90;;;;;;5013075;28;20125;-76
2023/10/16 00:03:41;;;;;;;1.70;0.93;;;6.20;99.90;;;;;;4997321;28;20057;-76
2023/10/16 00:06:07;;;;;;;2.90;1.10;;;6.20;99.90;;;;;;5014079;28;20120;-76
2023/10/16 00:08:34;;;;;;;3.58;0.98;;;6.20;99.90;;;;;;4996705;28;20128;-76
2023/10/16 00:11:05;;;;;;;4.45;1.00;;;6.20;99.90;;;;;;5012786;28;20490;-77
2023/10/16 00:13:31;;;;;;;4.88;1.10;;;6.20;99.90;;;;;;5013466;28;20053;-77
2023/10/16 00:16:04;;;;;;;2.97;0.95;;;6.20;99.90;;;;;;5013924;28;20117;-76
2023/10/16 00:18:34;;;;;;;2.00;0.85;;;6.20;99.90;;;;;;5013379;28;20066;-76
2023/10/16 00:21:04;;;;;;;2.58;0.80;;;6.20;99.90;;;;;;5013572;28;20120;-77
2023/10/16 00:23:30;;;;;;;2.42;1.05;;;6.20;99.90;;;;;;5013900;28;20052;-76
2023/10/16 00:25:58;;;;;;;2.17;0.90;;;6.20;99.90;;;;;;5012981;28;20128;-76
2023/10/16 00:28:24;;;;;;;2.95;1.05;;;6.10;99.90;;;;;;5012811;28;20045;-76
2023/10/16 00:30:51;;;;;;;2.90;0.80;;;6.00;99.90;;;;;;5013223;28;20077;-76
2023/10/16 00:33:18;;;;;;;4.38;1.27;;;6.00;99.90;;;;;;5012879;28;20061;-76
2023/10/16 00:35:53;;;;;;;2.60;0.82;;;5.90;99.90;;;;;;5012844;28;20045;-76
2023/10/16 00:38:19;;;;;;;3.88;1.10;;;5.90;99.90;;;;;;5012925;28;20482;-76
2023/10/16 00:43:33;;;;;;;2.63;1.00;;;5.80;99.90;;;;;;5013146;28;20054;-76
2023/10/16 00:46:06;;;;;;;2.75;0.85;;;5.80;99.90;;;;;;5013526;28;20053;-76
2023/10/16 00:48:34;;;;;;;3.13;1.15;;;5.90;99.90;;;;;;5013469;28;20042;-76
2023/10/16 00:51:09;;;;;;;3.25;0.90;;;5.90;99.90;;;;;;5013548;28;20101;-76
2023/10/16 00:53:36;;;;;;;3.75;0.98;;;6.00;99.90;;;;;;5013606;28;20049;-76
2023/10/16 00:56:08;;;;;;;3.05;0.90;;;6.10;99.90;;;;;;5012019;28;20072;-76
2023/10/16 00:58:37;;;;;;;2.55;0.77;;;6.20;99.90;;;;;;5013277;28;20046;-76
2023/10/16 01:01:09;;;;;;;4.75;1.08;;;6.30;99.90;;;;;;5012557;28;20058;-76
2023/10/16 01:03:37;;;;;;;3.03;0.80;;;6.30;99.90;;;;;;5013658;28;20069;-77
2023/10/16 01:06:04;;;;;;;4.72;0.88;;;6.40;99.90;;;;;;5012440;28;20056;-76
2023/10/16 01:08:30;;;;;;;2.53;0.90;;;6.40;99.90;;;;;;5013278;28;20041;-76
2023/10/16 01:10:59;;;;;;;3.55;0.82;;;6.50;99.90;;;;;;5015416;28;20057;-76
2023/10/16 01:13:28;;;;;;;3.40;1.10;;;6.50;99.90;;;;;;5017234;28;20116;-77
2023/10/16 01:15:56;;;;;;;2.55;0.88;;;6.50;99.90;;;;;;5016392;28;20050;-77
2023/10/16 01:18:23;;;;;;;1.70;0.80;;;6.60;99.90;;;;;;5017356;28;20065;-76
2023/10/16 01:20:49;;;;;;;1.58;0.80;;;6.60;99.90;;;;;;5016357;28;20125;-76
2023/10/16 01:23:17;;;;;;;4.32;1.20;;;6.60;99.90;;;;;;5016024;28;20132;-76
2023/10/16 01:25:46;;;;;;;5.45;0.85;;;6.70;99.90;;;;;;5016053;28;20449;-76
2023/10/16 01:28:15;;;;;;;3.05;0.80;;;6.70;99.90;;;;;;5031931;28;20042;-76
2023/10/16 01:30:41;;;;;;;2.53;0.93;;;6.80;99.90;;;;;;5016985;28;20434;-76
2023/10/16 01:33:08;;;;;;;3.88;1.00;;;6.80;99.90;;;;;;5017082;28;20050;-76
2023/10/16 01:35:36;;;;;;;3.75;0.90;;;6.80;99.90;;;;;;4999778;28;20056;-76
2023/10/16 01:38:16;;;;;;;3.30;0.80;;;6.90;99.90;;;;;;5016000;28;20061;-76
2023/10/16 01:41:34;;;;;;;3.83;0.75;;;6.70;99.90;;;;;;5016854;28;20054;-76
2023/10/16 01:43:36;;;;;;;1.67;0.73;;;6.70;99.90;;;;;;5005088;28;20057;-76
2023/10/16 01:46:10;;;;;;;2.00;0.60;;;6.60;99.90;;;;;;5015889;28;20053;-76
2023/10/16 01:48:41;;;;;;;2.05;0.90;;;6.60;99.90;;;;;;5016298;28;20054;-76
2023/10/16 01:51:19;;;;;;;2.58;0.80;;;6.60;99.90;;;;;;5015617;28;20053;-75
2023/10/16 01:53:50;;;;;;;5.53;0.90;;;6.60;99.90;;;;;;5000544;28;20061;-76
2023/10/16 01:56:17;;;;;;;2.45;0.90;;;6.50;99.90;;;;;;5016324;28;20483;-76
2023/10/16 01:58:47;;;;;;;2.70;0.90;;;6.60;99.90;;;;;;5015604;28;20097;-76
2023/10/16 02:01:20;;;;;;;1.95;0.85;;;6.60;99.90;;;;;;5015480;28;20053;-77
2023/10/16 02:03:49;;;;;;;2.85;0.90;;;6.70;99.90;;;;;;5016227;28;20124;-76
2023/10/16 02:06:18;;;;;;;2.35;0.90;;;6.70;99.90;;;;;;5015498;28;20041;-76
2023/10/16 02:08:46;;;;;;;2.65;0.80;;;6.70;99.90;;;;;;5015747;28;20042;-76
2023/10/16 02:11:12;;;;;;;2.88;0.93;;;6.70;99.90;;;;;;5015284;28;20041;-77
2023/10/16 02:13:42;;;;;;;1.95;0.98;;;6.70;99.90;;;;;;5015384;28;20058;-76
2023/10/16 02:16:10;;;;;;;1.70;0.70;;;6.80;99.90;;;;;;5015130;28;20049;-76
2023/10/16 02:18:37;;;;;;;3.13;1.75;;;6.70;99.90;;;;;;5015281;28;20065;-77
2023/10/16 02:21:11;;;;;;;1.85;0.68;;;6.80;99.90;;;;;;5016753;28;20045;-77
2023/10/16 02:23:41;;;;;;;2.33;0.70;;;6.80;99.90;;;;;;5015397;28;20046;-76
2023/10/16 02:26:07;;;;;;;2.38;0.88;;;6.90;99.90;;;;;;4998651;28;20054;-76
2023/10/16 02:28:33;;;;;;;2.10;0.90;;;6.90;99.90;;;;;;5015025;28;20462;-76
2023/10/16 02:31:19;;;;;;;2.00;0.80;;;6.90;99.90;;;;;;5014680;28;20081;-76
2023/10/16 02:33:55;;;;;;;4.33;0.80;;;6.90;99.90;;;;;;5015261;28;20533;-76
2023/10/16 02:36:22;;;;;;;1.95;0.65;;;6.90;99.90;;;;;;5015209;28;20056;-76
2023/10/16 02:38:49;;;;;;;3.33;0.80;;;6.90;99.90;;;;;;4998473;28;20394;-77
2023/10/16 02:41:16;;;;;;;1.25;0.75;;;6.90;99.90;;;;;;5015137;28;20053;-77
2023/10/16 02:43:41;;;;;;;3.00;0.90;;;6.90;99.90;;;;;;4998698;28;20096;-76
2023/10/16 02:46:11;;;;;;;4.13;1.20;;;7.00;99.90;;;;;;5014751;28;20038;-76
2023/10/16 02:48:37;;;;;;;3.03;0.80;;;6.90;99.90;;;;;;5014580;28;20081;-77
2023/10/16 02:51:06;;;;;;;3.25;0.80;;;7.00;99.90;;;;;;5015481;28;20049;-76
2023/10/16 02:53:34;;;;;;;2.58;0.80;;;6.90;99.90;;;;;;5014928;28;20058;-77
2023/10/16 02:58:55;;;;;;;2.17;0.90;;;6.80;99.90;;;;;;5014747;28;20061;-76
2023/10/16 03:01:22;;;;;;;2.05;1.05;;;6.80;99.90;;;;;;5015272;28;20378;-76
2023/10/16 03:03:48;;;;;;;2.50;1.13;;;6.70;99.90;;;;;;5015148;28;20046;-76
2023/10/16 03:06:16;;;;;;;3.05;1.15;;;6.70;99.90;;;;;;5014217;28;20046;-76
2023/10/16 03:08:51;;;;;;;2.20;1.08;;;6.60;99.90;;;;;;5015206;28;20100;-77
2023/10/16 03:11:18;;;;;;;3.03;0.95;;;6.60;99.90;;;;;;5015100;28;20084;-77
2023/10/16 03:13:47;;;;;;;1.48;0.88;;;6.50;99.90;;;;;;5013818;28;20125;-76
2023/10/16 03:16:23;;;;;;;5.07;1.40;;;6.60;99.90;;;;;;5014425;28;20049;-77
2023/10/16 03:18:50;;;;;;;4.00;1.27;;;6.60;99.90;;;;;;5014922;28;20540;-77
2023/10/16 03:23:46;;;;;;;2.50;1.10;;;6.60;99.90;;;;;;5015249;28;20060;-76
2023/10/16 03:26:25;;;;;;;1.98;1.00;;;6.60;99.90;;;;;;5013491;28;20625;-77
2023/10/16 03:28:53;;;;;;;3.42;1.00;;;6.60;99.90;;;;;;5013947;28;20069;-77
2023/10/16 03:31:23;;;;;;;2.15;1.00;;;6.60;99.90;;;;;;5013476;28;20568;-77
2023/10/16 03:33:49;;;;;;;2.65;1.20;;;6.60;99.90;;;;;;5012949;28;20586;-77
2023/10/16 03:36:15;;;;;;;4.07;1.33;;;6.60;99.90;;;;;;5013485;28;20041;-77
2023/10/16 03:38:41;;;;;;;4.32;1.42;;;6.60;99.90;;;;;;5013709;28;20053;-76
2023/10/16 03:41:31;;;;;;;2.17;1.10;;;6.60;99.90;;;;;;5013693;28;20056;-77
2023/10/16 03:43:58;;;;;;;3.03;1.50;;;6.60;99.90;;;;;;4997282;28;20145;-77
2023/10/16 03:46:28;;;;;;;3.72;1.55;;;6.60;99.90;;;;;;5013502;28;20049;-76
2023/10/16 03:48:56;;;;;;;2.63;1.58;;;6.60;99.90;;;;;;5013278;28;20402;-77
2023/10/16 03:51:22;;;;;;;3.97;1.35;;;6.50;99.90;;;;;;4997511;28;20085;-77
2023/10/16 03:53:52;;;;;;;3.28;1.60;;;6.50;99.90;;;;;;5013570;28;20092;-77
2023/10/16 03:56:20;;;;;;;3.28;1.38;;;6.40;99.90;;;;;;5013348;28;20397;-76
2023/10/16 03:58:47;;;;;;;4.88;1.67;;;6.40;99.90;;;;;;4997054;28;20033;-78
2023/10/16 04:01:23;;;;;;;3.85;1.58;;;6.50;99.90;;;;;;5014389;28;20061;-77
2023/10/16 04:03:51;;;;;;;2.70;1.65;;;6.60;99.90;;;;;;4997544;28;20049;-76
2023/10/16 04:06:20;;;;;;;5.00;1.73;;;6.60;99.90;;;;;;5013333;28;20060;-77
2023/10/16 04:08:47;;;;;;;3.15;1.77;;;6.60;99.90;;;;;;4980919;28;20050;-77
2023/10/16 04:11:17;;;;;;;4.15;1.80;;;6.70;99.90;;;;;;5013276;28;20112;-77
2023/10/16 04:13:49;;;;;;;5.95;2.35;;;6.70;99.90;;;;;;5013527;28;20064;-77
2023/10/16 04:21:51;;;;;;;3.45;1.80;;;6.80;99.90;;;;;;5013479;28;20160;-77
2023/10/16 04:29:34;;;;;;;4.47;1.98;;;6.90;99.90;;;;;;5012695;28;20157;-76
2023/10/16 04:34:31;;;;;;;6.95;2.80;;;6.90;99.90;;;;;;5015359;28;20050;-77
2023/10/16 04:37:29;;;;;;;3.20;1.85;;;6.90;99.90;;;;;;5031330;28;20052;-76
2023/10/16 04:53:11;;;;;;;3.42;1.95;;;7.00;99.90;;;;;;5016284;28;20052;-76
2023/10/16 04:58:38;;;;;;;4.47;1.95;;;7.00;99.90;;;;;;5016476;28;20062;-76
2023/10/16 05:17:06;;;;;;;5.85;2.20;;;6.80;99.90;;;;;;4952825;28;20051;-77
2023/10/16 05:22:03;;;;;;;7.00;2.40;;;6.90;99.90;;;;;;5016270;28;20088;-77
2023/10/16 06:14:14;;;;;;;3.92;2.30;;;6.50;99.90;;;;;;5001816;28;20053;-78
2023/10/16 06:16:45;;;;;;;;;;;6.60;99.90;;;;;;5015799;28;20054;-76
2023/10/16 06:19:15;;;;;;;3.00;1.88;;;6.50;99.90;;;;;;5016302;28;19967;-76
2023/10/16 06:21:46;;;;;;;3.40;2.28;;;6.50;99.90;;;;;;5015249;28;20057;-76
2023/10/16 06:27:08;;;;;;;4.32;2.10;;;6.60;99.90;;;;;;5014991;28;20053;-75
2023/10/16 06:29:50;;;;;;;4.60;2.30;;;6.60;99.90;;;;;;4998812;28;20068;-76
2023/10/16 06:32:22;;;;;;;5.22;2.50;;;6.60;99.90;;;;;;4998992;28;20475;-76
2023/10/16 06:34:50;;;;;;;4.93;2.47;;;6.70;99.90;;;;;;5014896;28;20060;-76
2023/10/16 06:37:21;;;;;;;3.55;2.08;;;6.70;99.90;;;;;;5015687;28;20554;-76
2023/10/16 06:39:54;;;;;;;3.83;2.20;;;6.70;99.90;;;;;;5015160;28;20482;-74
2023/10/16 06:42:23;;;;;;;4.85;2.55;;;6.70;99.90;;;;;;5015154;28;20045;-75
2023/10/16 06:44:53;;;;;;;4.05;2.33;;;6.80;99.90;;;;;;4982213;28;20050;-75
2023/10/16 06:47:47;;;;;;;4.20;2.10;;;6.90;99.90;;;;;;5015358;28;20363;-74
2023/10/16 06:52:52;;;;;;;6.07;2.20;;;6.90;99.90;;;;;;5014532;28;20064;-75
2023/10/16 06:55:18;;;;;;;4.00;2.38;;;7.00;99.90;;;;;;5015518;28;20052;-76
2023/10/16 06:57:45;;;;;;;4.15;2.67;;;7.10;99.90;;;;;;5015527;28;20418;-75
2023/10/16 07:00:25;;;;;;;5.25;2.55;;;7.10;99.90;;;;;;5014379;28;20103;-76
2023/10/16 07:02:54;;;;;;;3.55;2.30;;;7.10;99.90;;;;;;5014491;28;20540;-76
2023/10/16 07:05:24;;;;;;;4.55;2.20;;;7.20;99.90;;;;;;4998267;28;20054;-76
2023/10/16 07:08:00;;;;;;;6.35;2.60;;;7.20;99.90;;;;;;5014668;28;20054;-76
2023/10/16 07:10:28;;;;;;;2.90;2.05;;;7.30;99.90;;;;;;5014137;28;20081;-75
2023/10/16 07:12:58;;;;;;;3.60;2.20;;;7.30;99.90;;;;;;5015529;28;20363;-76
2023/10/16 07:15:29;;;;;;;4.60;2.17;;;7.30;99.90;;;;;;5013264;28;20100;-76
2023/10/16 07:18:04;;;;;;;3.70;2.17;;;7.40;99.90;;;;;;5014757;28;20046;-76
2023/10/16 07:20:31;;;;;;;3.53;2.08;;;7.60;99.90;;;;;;5014446;28;20042;-76
2023/10/16 07:23:00;;;;;;;4.63;1.80;;;7.60;99.90;;;;;;5013927;28;20136;-77
2023/10/16 07:25:47;;;;;;;3.33;1.70;;;7.60;99.90;;;;;;5013813;28;20058;-77
2023/10/16 07:28:15;;;;;;;5.25;2.00;;;7.70;99.90;;;;;;5013860;28;20380;-76
2023/10/16 07:30:42;;;;;;;4.65;1.85;;;7.80;99.90;;;;;;4997600;28;20046;-76
2023/10/16 07:33:14;;;;;;;4.07;2.05;;;7.80;99.90;;;;;;5014761;28;20056;-76
2023/10/16 07:35:44;;;;;;;3.15;1.77;;;7.90;99.90;;;;;;5014620;28;20096;-76
2023/10/16 07:38:19;;;;;;;3.55;1.50;;;8.00;99.90;;;;;;5014673;28;20111;-75
2023/10/16 07:40:50;;;;;;;3.42;1.45;;;8.10;99.90;;;;;;5013369;28;20049;-75
2023/10/16 07:43:16;;;;;;;2.90;1.70;;;8.20;99.90;;;;;;5014381;28;20042;-79
2023/10/16 07:45:45;;;;;;;5.07;1.80;;;8.20;99.90;;;;;;5013610;28;20042;-77
2023/10/16 07:48:20;;;;;;;4.32;1.63;;;8.30;99.90;;;;;;5013401;28;20050;-77
2023/10/16 07:50:50;;;;;;;4.30;2.13;;;8.30;99.90;;;;;;5014308;28;20092;-77
2023/10/16 07:53:19;;;;;;;3.90;1.60;;;8.40;99.90;;;;;;5014346;28;20141;-74
2023/10/16 07:55:51;;;;;;;4.32;1.58;;;8.40;99.90;;;;;;5014163;28;20046;-75
2023/10/16 07:58:23;;;;;;;2.95;1.60;;;8.50;99.90;;;;;;5014272;28;20050;-75
2023/10/16 08:01:16;;;;;;;3.00;1.42;;;8.50;99.90;;;;;;5014225;28;20537;-75
2023/10/16 08:03:45;;;;;;;4.55;1.92;;;8.50;99.90;;;;;;5013443;28;20137;-73
2023/10/16 08:06:17;;;;;;;4.65;1.40;;;8.60;99.90;;;;;;5014211;28;20154;-73
2023/10/16 08:08:49;;;;;;;4.07;1.73;;;8.60;99.90;;;;;;5013181;28;20621;-75
2023/10/16 08:11:20;;;;;;;3.83;1.60;;;8.70;99.90;;;;;;5014816;28;20126;-74
2023/10/16 08:13:52;;;;;;;4.68;1.73;;;8.70;99.90;;;;;;5013259;28;20046;-72
2023/10/16 08:16:21;;;;;;;3.80;1.70;;;8.70;99.90;;;;;;5013743;28;20057;-73
2023/10/16 08:18:52;;;;;;;2.33;1.30;;;8.80;99.90;;;;;;5013108;28;20049;-74
2023/10/16 08:21:25;;;;;;;3.65;1.60;;;8.90;99.90;;;;;;5013474;28;20053;-74
2023/10/16 08:23:56;;;;;;;2.75;1.30;;;9.10;99.90;;;;;;5014056;28;20597;-73
2023/10/16 08:26:28;;;;;;;3.25;1.50;;;9.20;99.90;;;;;;4996956;28;20418;-73
2023/10/16 08:31:43;;;;;;;4.20;1.45;;;9.60;99.90;;;;;;5013052;28;20046;-74
2023/10/16 08:34:13;;;;;;;3.00;1.60;;;9.70;99.90;;;;;;4996870;28;20058;-77
2023/10/16 08:36:41;;;;;;;2.95;1.60;;;9.80;99.90;;;;;;4996400;28;20125;-76
2023/10/16 08:39:09;;;;;;;3.92;1.63;;;10.00;99.90;;;;;;5013736;28;20050;-75
2023/10/16 08:41:42;;;;;;;3.65;1.40;;;10.00;99.90;;;;;;4996103;28;20046;-76
2023/10/16 08:44:15;;;;;;;4.03;1.10;;;10.10;99.90;;;;;;5012873;28;20050;-76
2023/10/16 08:49:22;;;;;;;3.15;1.25;;;10.30;99.90;;;;;;5014374;28;20057;-75
2023/10/16 08:52:17;;;;;;;3.03;1.33;;;10.40;99.90;;;;;;5013825;28;20057;-76
2023/10/16 08:57:25;;;;;;;4.53;1.23;;;10.60;99.90;;;;;;4997928;28;20386;-76
2023/10/16 08:59:52;;;;;;;4.10;1.13;;;10.70;99.90;;;;;;5012904;28;20049;-76
2023/10/16 09:02:20;;;;;;;3.85;1.15;;;10.70;99.90;;;;;;5013261;28;20378;-76
2023/10/16 09:04:52;;;;;;;3.00;1.00;;;10.80;99.90;;;;;;5013317;28;20511;-75
2023/10/16 09:07:19;;;;;;;3.08;1.02;;;10.80;99.90;;;;;;5012628;28;20085;-75
2023/10/16 09:09:48;;;;;;;4.53;1.20;;;10.80;99.90;;;;;;5012423;28;20046;-76
2023/10/16 09:12:27;;;;;;;4.65;1.65;;;10.80;99.90;;;;;;5012651;28;20050;-75
2023/10/16 09:15:05;;;;;;;3.75;1.52;;;10.80;99.90;;;;;;5012841;28;20494;-76
2023/10/16 09:17:33;;;;;;;3.92;1.00;;;10.80;99.90;;;;;;4996511;28;20121;-76
2023/10/16 09:19:58;;;;;;;2.70;1.00;;;10.80;99.90;;;;;;5013450;28;20037;-77
2023/10/16 09:22:28;;;;;;;3.53;1.00;;;10.90;99.90;;;;;;5028867;28;20132;-76
2023/10/16 09:24:55;;;;;;;3.28;1.40;;;11.00;99.90;;;;;;5013375;28;20060;-76
2023/10/16 09:27:29;;;;;;;2.90;1.10;;;11.00;99.90;;;;;;5014246;28;20054;-76
2023/10/16 09:29:58;;;;;;;2.65;1.10;;;10.90;99.90;;;;;;4998556;28;20169;-76
2023/10/16 09:32:25;;;;;;;6.22;1.30;;;10.90;99.90;;;;;;4998736;28;20053;-76
2023/10/16 09:34:53;;;;;;;3.00;1.10;;;10.90;99.90;;;;;;5016929;28;20155;-76
2023/10/16 09:37:24;;;;;;;4.28;0.80;;;10.90;99.90;;;;;;5015963;28;20045;-76
2023/10/16 09:39:52;;;;;;;2.67;0.80;;;10.90;99.90;;;;;;5016713;28;20092;-76
2023/10/16 09:42:24;;;;;;;2.20;0.85;;;10.90;99.90;;;;;;5016782;28;20466;-76
2023/10/16 09:44:59;;;;;;;3.00;0.95;;;10.90;99.90;;;;;;5016843;28;20060;-76
2023/10/16 09:47:31;;;;;;;5.18;1.10;;;10.90;99.90;;;;;;5015423;28;20578;-76
2023/10/16 09:49:59;;;;;;;5.50;1.17;;;11.00;99.90;;;;;;5032490;28;20053;-76
2023/10/16 09:52:25;;;;;;;3.80;0.80;;;11.00;99.90;;;;;;5017186;28;20435;-76
2023/10/16 09:54:52;;;;;;;3.10;0.70;;;11.00;99.90;;;;;;5015826;28;20096;-76
2023/10/16 09:57:27;;;;;;;3.80;0.90;;;11.00;99.90;;;;;;5015678;28;20053;-76
2023/10/16 10:02:42;;;;;;;1.80;0.70;;;11.20;99.90;;;;;;5016496;28;20057;-76
2023/10/16 10:05:12;;;;;;;2.40;0.77;;;11.20;99.90;;;;;;4999440;28;20060;-76
2023/10/16 10:07:47;;;;;;;2.70;0.90;;;11.20;99.90;;;;;;5017087;28;20089;-76
2023/10/16 10:13:15;;;;;;;5.20;1.05;;;11.50;99.90;;;;;;5015652;28;20061;-76
2023/10/16 10:15:49;;;;;;;2.83;0.70;;;12.00;99.90;;;;;;5015614;28;20088;-76
2023/10/16 10:18:32;;;;;;;3.90;0.98;;;12.30;99.90;;;;;;5017082;28;20442;-77
2023/10/16 10:20:58;;;;;;;3.25;1.40;;;12.50;99.90;;;;;;5016763;28;20054;-79
2023/10/16 10:23:28;;;;;;;2.95;0.80;;;12.70;99.90;;;;;;4998643;28;20084;-76
2023/10/16 10:25:54;;;;;;;2.83;0.63;;;13.00;99.90;;;;;;5015937;28;20180;-77
2023/10/16 10:28:32;;;;;;;1.42;0.68;;;13.20;99.90;;;;;;5015294;28;20135;-77
2023/10/16 10:31:05;;;;;;;2.97;0.77;;;13.40;99.90;;;;;;5014956;28;20049;-79
2023/10/16 10:33:38;;;;;;;2.97;0.80;;;13.50;99.90;;;;;;4999567;28;20050;-77
2023/10/16 10:36:43;;;;;;;4.13;0.63;;;13.60;99.90;;;;;;5015846;28;20046;-77
2023/10/16 10:39:38;;;;;;;2.95;0.73;;;13.80;99.90;;;;;;5030149;28;20066;-79
2023/10/16 10:42:10;;;;;;;2.10;0.70;;;14.10;99.90;;;;;;4998217;28;20050;-76
2023/10/16 10:44:44;;;;;;;2.45;0.70;;;14.30;99.90;;;;;;5014332;28;20064;-77
2023/10/16 10:47:30;;;;;;;3.75;0.90;;;14.30;99.90;;;;;;5014558;28;20037;-77
2023/10/16 10:49:59;;;;;;;4.03;0.90;;;14.00;99.90;;;;;;5014396;28;20050;-77
2023/10/16 10:52:27;;;;;;;1.35;0.75;;;13.90;99.90;;;;;;4998340;28;20138;-77
2023/10/16 10:55:00;;;;;;;2.63;0.80;;;13.90;99.90;;;;;;5015465;28;20066;-76
2023/10/16 10:57:26;;;;;;;3.25;0.85;;;13.70;99.90;;;;;;4998947;28;20073;-77
2023/10/16 11:00:05;;;;;;;2.55;0.73;;;13.40;99.90;;;;;;5014494;28;20052;-77
2023/10/16 11:04:59;;;;;;;3.33;0.70;;;12.90;99.90;;;;;;5014674;28;20068;-76
2023/10/16 11:07:39;;;;;;;2.55;0.65;;;12.80;99.90;;;;;;5015167;28;20081;-75
2023/10/16 11:10:06;;;;;;;2.92;0.75;;;12.70;99.90;;;;;;5013744;28;20082;-78
2023/10/16 11:12:32;;;;;;;1.45;0.60;;;12.60;99.90;;;;;;4998099;28;20438;-79
2023/10/16 11:15:01;;;;;;;2.75;0.80;;;12.60;99.90;;;;;;4997862;28;20050;-79
2023/10/16 11:17:34;;;;;;;2.78;0.80;;;12.50;99.90;;;;;;4997777;28;20054;-79
2023/10/16 11:20:36;;;;;;;1.05;0.50;;;12.50;99.90;;;;;;5014135;28;20045;-79
2023/10/16 11:22:56;;;;;;;1.70;0.40;;;12.50;99.90;;;;;;4999715;28;20423;-78
2023/10/16 11:25:29;;;;;;;3.33;0.80;;;12.50;99.90;;;;;;4997432;28;20081;-77
2023/10/16 11:28:06;;;;;;;2.58;0.60;;;12.50;99.90;;;;;;4997909;28;20050;-77
2023/10/16 11:30:38;;;;;;;1.42;0.63;;;12.50;99.90;;;;;;4997759;28;20140;-76
2023/10/16 11:33:06;;;;;;;5.00;3.50;;;12.50;99.90;;;;;;5014109;28;20141;-77
2023/10/16 11:35:34;;;;;;;5.53;0.90;;;12.60;99.90;;;;;;5014112;28;20128;-76
2023/10/16 11:38:04;;;;;;;1.40;0.60;;;12.50;99.90;;;;;;4997667;28;20050;-76
2023/10/16 11:40:39;;;;;;;2.28;0.70;;;12.50;99.90;;;;;;5013805;28;20088;-76
2023/10/16 11:43:19;;;;;;;2.55;0.70;;;12.40;99.90;;;;;;5014538;28;20056;-77
2023/10/16 11:45:53;;;;;;;2.63;0.60;;;12.40;99.90;;;;;;5013959;28;20041;-75
2023/10/16 11:51:08;;;;;;;2.13;0.60;;;12.30;99.90;;;;;;5013856;28;20144;-76
2023/10/16 11:53:37;;;;;;;3.30;0.80;;;12.30;99.90;;;;;;5013814;28;20068;-76
2023/10/16 11:56:03;;;;;;;2.08;0.90;;;12.30;99.90;;;;;;5012967;28;20099;-77
2023/10/16 11:58:32;;;;;;;2.47;0.65;;;12.30;99.90;;;;;;5013444;28;20058;-76
2023/10/16 12:01:08;;;;;;;2.33;0.63;;;12.30;99.90;;;;;;4996979;28;20402;-77
2023/10/16 12:03:37;;;;;;;5.22;1.00;;;12.30;99.90;;;;;;5013632;28;20050;-77
2023/10/16 12:06:13;;;;;;;2.22;0.65;;;12.40;99.90;;;;;;5029841;28;20061;-76
2023/10/16 12:08:41;;;;;;;2.25;0.73;;;12.30;99.90;;;;;;5013373;28;20100;-77
2023/10/16 12:11:08;;;;;;;2.55;0.70;;;12.40;99.90;;;;;;5014093;28;20128;-77
2023/10/16 12:13:33;;;;;;;2.05;0.70;;;12.40;99.90;;;;;;5012826;28;20136;-78
2023/10/16 12:15:59;;;;;;;2.40;0.80;;;12.40;99.90;;;;;;5014811;28;20137;-78
2023/10/16 12:18:31;;;;;;;1.92;0.70;;;12.40;99.90;;;;;;5013718;28;20438;-78
2023/10/16 12:21:05;;;;;;;1.45;0.60;;;12.40;99.90;;;;;;5013855;28;20057;-78
2023/10/16 12:23:34;;;;;;;3.03;0.70;;;12.40;99.90;;;;;;5013335;28;20402;-77
2023/10/16 12:26:01;;;;;;;2.42;0.75;;;12.40;99.90;;;;;;5013717;28;20058;-78
2023/10/16 12:28:28;;;;;;;1.77;0.60;;;12.40;99.90;;;;;;5012955;28;20062;-77
2023/10/16 12:30:57;;;;;;;4.05;0.60;;;12.40;99.90;;;;;;5012726;28;20129;-76
2023/10/16 12:33:25;;;;;;;4.47;0.93;;;12.40;99.90;;;;;;5012846;28;20049;-78
2023/10/16 12:35:57;;;;;;;1.83;0.63;;;12.40;99.90;;;;;;5013893;28;20045;-78
2023/10/16 12:38:26;;;;;;;1.92;0.80;;;12.40;99.90;;;;;;4998193;28;20050;-79
2023/10/16 12:41:05;;;;;;;1.45;0.60;;;12.40;99.90;;;;;;5012682;28;20045;-78
2023/10/16 12:43:31;;;;;;;2.95;0.80;;;12.40;99.90;;;;;;5012581;28;20125;-77
2023/10/16 12:45:57;;;;;;;3.97;0.70;;;12.40;99.90;;;;;;5013610;28;20092;-77
2023/10/16 12:48:30;;;;;;;1.40;0.70;;;12.40;99.90;;;;;;5012440;28;20049;-80
2023/10/16 12:51:07;;;;;;;2.55;0.60;;;12.40;99.90;;;;;;5012377;28;20487;-77
2023/10/16 12:53:33;;;;;;;2.50;0.85;;;12.50;99.90;;;;;;5012191;28;20564;-77
2023/10/16 12:55:59;;;;;;;3.10;0.90;;;12.50;99.90;;;;;;5012296;28;20054;-78
2023/10/16 12:58:28;;;;;;;2.47;0.75;;;12.60;99.90;;;;;;5013348;28;20091;-78
2023/10/16 13:00:57;;;;;;;1.70;0.60;;;12.60;99.90;;;;;;5012281;28;20093;-78
2023/10/16 13:03:23;;;;;;;2.90;0.60;;;12.70;99.90;;;;;;5012562;28;20491;-78
2023/10/16 13:05:49;;;;;;;2.20;0.70;;;12.70;99.90;;;;;;5013656;28;20057;-77
2023/10/16 13:08:20;;;;;;;3.40;0.60;;;12.70;99.90;;;;;;5017657;28;20053;-79
2023/10/16 13:10:48;;;;;;;2.08;0.65;;;12.70;99.90;;;;;;5001253;28;20128;-79
2023/10/16 13:13:19;;;;;;;4.15;0.70;;;12.80;99.90;;;;;;5016784;28;20060;-77
2023/10/16 13:15:51;;;;;;;2.10;0.70;;;12.70;99.90;;;;;;5017219;28;20041;-77
2023/10/16 13:18:27;;;;;;;3.40;0.95;;;12.70;99.90;;;;;;5016431;28;20082;-78
2023/10/16 13:21:15;;;;;;;1.63;0.80;;;12.70;99.90;;;;;;5016689;28;20057;-77
2023/10/16 13:23:41;;;;;;;2.85;0.70;;;12.70;99.90;;;;;;4999220;28;20055;-77
2023/10/16 13:26:10;;;;;;;4.05;0.75;;;12.70;99.90;;;;;;4999959;28;20095;-78
2023/10/16 13:28:38;;;;;;;3.08;0.73;;;12.70;99.90;;;;;;5016231;28;20158;-78
2023/10/16 13:31:04;;;;;;;5.07;0.70;;;12.70;99.90;;;;;;5015826;28;20133;-80
2023/10/16 13:33:33;;;;;;;2.47;1.00;;;12.80;99.90;;;;;;4999774;28;20081;-80
2023/10/16 13:36:00;;;;;;;2.83;0.70;;;12.80;99.90;;;;;;5000092;28;20501;-79
2023/10/16 13:38:26;;;;;;;1.73;0.50;;;12.80;99.90;;;;;;5015873;28;20050;-80
2023/10/16 13:40:53;;;;;;;2.58;0.70;;;12.80;99.90;;;;;;5016281;28;20038;-75
2023/10/16 13:43:19;;;;;;;2.15;0.70;;;12.70;99.90;;;;;;5000387;28;20165;-75
2023/10/16 13:45:45;;;;;;;3.10;0.80;;;12.80;99.90;;;;;;4999518;28;20116;-76
2023/10/16 13:48:11;;;;;;;3.88;0.70;;;12.70;99.90;;;;;;5016664;28;20088;-80
2023/10/16 13:50:37;;;;;;;4.65;0.90;;;12.70;99.90;;;;;;4999218;28;20085;-78
2023/10/16 13:53:04;;;;;;;2.50;0.60;;;12.70;99.90;;;;;;4998746;28;20168;-78
2023/10/16 13:55:30;;;;;;;3.00;0.70;;;12.70;99.90;;;;;;5015924;28;20057;-78
2023/10/16 13:57:56;;;;;;;1.13;0.52;;;12.70;99.90;;;;;;5015494;28;20053;-78
2023/10/16 14:00:35;;;;;;;3.03;0.80;;;12.60;99.90;;;;;;5015658;28;20042;-79
2023/10/16 14:03:21;;;;;;;3.78;0.90;;;12.60;99.90;;;;;;5015672;28;20053;-79
2023/10/16 14:05:47;;;;;;;1.70;0.75;;;12.60;99.90;;;;;;5015711;28;20054;-78
2023/10/16 14:08:15;;;;;;;2.63;0.95;;;12.50;99.90;;;;;;4998629;28;20193;-77
2023/10/16 14:10:52;;;;;;;3.38;0.70;;;12.50;99.90;;;;;;5016405;28;20457;-78
2023/10/16 14:13:26;;;;;;;1.80;0.70;;;12.50;99.90;;;;;;5017325;28;20502;-78
2023/10/16 14:15:57;;;;;;;3.75;0.88;;;12.40;99.90;;;;;;5018573;28;20435;-78
2023/10/16 14:18:26;;;;;;;3.63;1.27;;;12.40;99.90;;;;;;5015540;28;20089;-78
2023/10/16 14:20:53;;;;;;;3.30;0.85;;;12.50;99.90;;;;;;5014906;28;20091;-77
2023/10/16 14:23:19;;;;;;;2.47;1.20;;;12.40;99.90;;;;;;5015116;28;20058;-78
2023/10/16 14:25:49;;;;;;;2.25;0.80;;;12.40;99.90;;;;;;5015129;28;20045;-77
2023/10/16 14:28:40;;;;;;;2.80;0.80;;;12.40;99.90;;;;;;5015481;28;20037;-78
2023/10/16 14:31:09;;;;;;;2.83;0.80;;;12.40;99.90;;;;;;5001419;28;20123;-78
2023/10/16 14:33:36;;;;;;;3.72;0.60;;;12.40;99.90;;;;;;4999052;28;20390;-78
2023/10/16 14:36:08;;;;;;;1.83;0.70;;;12.40;99.90;;;;;;5014578;28;20060;-79
2023/10/16 14:38:34;;;;;;;1.98;0.60;;;12.50;99.90;;;;;;5014662;28;20054;-79
2023/10/16 14:41:04;;;;;;;5.80;0.80;;;12.40;99.90;;;;;;5015415;28;20100;-78
2023/10/16 14:43:34;;;;;;;5.03;0.80;;;12.40;99.90;;;;;;5016416;28;20418;-77
2023/10/16 14:46:07;;;;;;;3.13;0.77;;;12.50;99.90;;;;;;5015421;28;20089;-77
2023/10/16 14:48:33;;;;;;;2.63;0.80;;;12.40;99.90;;;;;;5014654;28;20568;-77
2023/10/16 14:51:00;;;;;;;1.92;0.80;;;12.40;99.90;;;;;;5014524;28;20066;-78
2023/10/16 14:53:28;;;;;;;2.60;0.60;;;12.40;99.90;;;;;;5013814;28;20054;-77
2023/10/16 14:55:54;;;;;;;3.80;0.80;;;12.40;99.90;;;;;;5015264;28;20410;-76
2023/10/16 14:58:20;;;;;;;2.60;0.80;;;12.40;99.90;;;;;;5015354;28;20046;-76
2023/10/16 15:00:50;;;;;;;1.77;0.60;;;12.40;99.90;;;;;;5015387;28;20038;-76
2023/10/16 15:03:16;;;;;;;3.50;1.50;;;12.40;99.90;;;;;;5015147;28;20387;-76
2023/10/16 15:05:43;;;;;;;4.57;2.50;;;12.50;99.90;;;;;;5015399;28;20049;-75
2023/10/16 15:08:13;;;;;;;4.32;2.72;;;12.50;99.90;;;;;;5014380;28;20089;-75
2023/10/16 15:10:44;;;;;;;4.10;1.08;;;12.50;99.90;;;;;;5014010;28;20049;-76
2023/10/16 15:13:14;;;;;;;2.92;0.90;;;12.50;99.90;;;;;;5015209;28;20054;-77
2023/10/16 15:15:46;;;;;;;2.33;0.90;;;12.50;99.90;;;;;;4998197;28;20050;-76
2023/10/16 15:18:14;;;;;;;2.72;0.70;;;12.50;99.90;;;;;;5014747;28;20037;-77
2023/10/16 15:20:40;;;;;;;2.80;0.80;;;12.40;99.90;;;;;;5014794;28;20414;-77